sensor_id;sensor_type;location;lat;lon;timestamp;temperature;humidity
52543;DHT22;38449;52.696;6.186;2022-09-09T00:00:20;15.20;99.90
52543;DHT22;38449;52.696;6.186;2022-09-09T00:03:07;15.20;99.90
52543;DHT22;38449;52.696;6.186;2022-09-09T00:05:42;15.30;99.90
52543;DHT22;38449;52.696;6.186;2022-09-09T00:08:21;15.20;99.90
52543;DHT22;38449;52.696;6.186;2022-09-09T00:10:54;15.30;99.90
52543;DHT22;38449;52.696;6.186;2022-09-09T00:16:17;15.30;99.90
52543;DHT22;38449;52.696;6.186;2022-09-09T00:21:41;15.40;99.90
52543;DHT22;38449;52.696;6.186;2022-09-09T00:26:48;15.40;99.90
52543;DHT22;38449;52.696;6.186;2022-09-09T00:29:57;15.50;99.90
52543;DHT22;38449;52.696;6.186;2022-09-09T00:32:28;15.40;99.90
52543;DHT22;38449;52.696;6.186;2022-09-09T00:37:45;15.30;99.90
52543;DHT22;38449;52.696;6.186;2022-09-09T00:40:32;15.30;99.90
52543;DHT22;38449;52.696;6.186;2022-09-09T00:43:27;15.40;99.90
52543;DHT22;38449;52.696;6.186;2022-09-09T00:57:29;15.40;99.90
52543;DHT22;38449;52.696;6.186;2022-09-09T01:00:24;15.40;99.90
52543;DHT22;38449;52.696;6.186;2022-09-09T01:02:56;15.50;99.90
52543;DHT22;38449;52.696;6.186;2022-09-09T01:05:35;15.50;99.90
52543;DHT22;38449;52.696;6.186;2022-09-09T01:08:08;15.50;99.90
52543;DHT22;38449;52.696;6.186;2022-09-09T01:10:51;15.50;99.90
52543;DHT22;38449;52.696;6.186;2022-09-09T01:13:28;15.50;99.90
52543;DHT22;38449;52.696;6.186;2022-09-09T01:15:58;15.40;99.90
52543;DHT22;38449;52.696;6.186;2022-09-09T01:18:32;15.40;99.90
52543;DHT22;38449;52.696;6.186;2022-09-09T01:24:32;15.40;99.90
52543;DHT22;38449;52.696;6.186;2022-09-09T01:26:59;15.40;99.90
52543;DHT22;38449;52.696;6.186;2022-09-09T01:29:26;15.40;99.90
52543;DHT22;38449;52.696;6.186;2022-09-09T01:31:55;15.40;99.90
52543;DHT22;38449;52.696;6.186;2022-09-09T01:34:24;15.40;99.90
52543;DHT22;38449;52.696;6.186;2022-09-09T01:37:10;15.40;99.90
52543;DHT22;38449;52.696;6.186;2022-09-09T01:39:39;15.40;99.90
52543;DHT22;38449;52.696;6.186;2022-09-09T01:42:07;15.40;99.90
52543;DHT22;38449;52.696;6.186;2022-09-09T01:44:34;15.40;99.90
52543;DHT22;38449;52.696;6.186;2022-09-09T01:47:01;15.40;99.90
52543;DHT22;38449;52.696;6.186;2022-09-09T01:49:27;15.40;99.90
52543;DHT22;38449;52.696;6.186;2022-09-09T01:51:54;15.40;99.90
52543;DHT22;38449;52.696;6.186;2022-09-09T01:54:23;15.30;99.90
52543;DHT22;38449;52.696;6.186;2022-09-09T02:05:45;15.30;99.90
52543;DHT22;38449;52.696;6.186;2022-09-09T02:09:04;15.30;99.90
52543;DHT22;38449;52.696;6.186;2022-09-09T02:13:37;15.30;99.90
52543;DHT22;38449;52.696;6.186;2022-09-09T02:16:26;15.30;99.90
52543;DHT22;38449;52.696;6.186;2022-09-09T02:21:22;15.30;99.90
52543;DHT22;38449;52.696;6.186;2022-09-09T02:23:50;15.40;99.90
52543;DHT22;38449;52.696;6.186;2022-09-09T02:26:18;15.30;99.90
52543;DHT22;38449;52.696;6.186;2022-09-09T02:28:46;15.30;99.90
52543;DHT22;38449;52.696;6.186;2022-09-09T02:31:13;15.30;99.90
52543;DHT22;38449;52.696;6.186;2022-09-09T02:33:44;15.30;99.90
52543;DHT22;38449;52.696;6.186;2022-09-09T02:36:12;15.30;99.90
52543;DHT22;38449;52.696;6.186;2022-09-09T02:38:46;15.30;99.90
52543;DHT22;38449;52.696;6.186;2022-09-09T02:41:17;15.30;99.90
52543;DHT22;38449;52.696;6.186;2022-09-09T02:43:44;15.20;99.90
52543;DHT22;38449;52.696;6.186;2022-09-09T02:49:09;15.30;99.90
52543;DHT22;38449;52.696;6.186;2022-09-09T02:51:52;15.30;99.90
52543;DHT22;38449;52.696;6.186;2022-09-09T02:54:32;15.30;99.90
52543;DHT22;38449;52.696;6.186;2022-09-09T02:57:04;15.30;99.90
52543;DHT22;38449;52.696;6.186;2022-09-09T02:59:31;15.30;99.90
52543;DHT22;38449;52.696;6.186;2022-09-09T03:01:57;15.30;99.90
52543;DHT22;38449;52.696;6.186;2022-09-09T03:04:23;15.30;99.90
52543;DHT22;38449;52.696;6.186;2022-09-09T03:06:50;15.30;99.90
52543;DHT22;38449;52.696;6.186;2022-09-09T03:09:16;15.30;99.90
52543;DHT22;38449;52.696;6.186;2022-09-09T03:11:42;15.30;99.90
52543;DHT22;38449;52.696;6.186;2022-09-09T03:14:07;15.30;99.90
52543;DHT22;38449;52.696;6.186;2022-09-09T03:16:34;15.30;99.90
52543;DHT22;38449;52.696;6.186;2022-09-09T03:19:00;15.30;99.90
52543;DHT22;38449;52.696;6.186;2022-09-09T03:21:26;15.20;99.90
52543;DHT22;38449;52.696;6.186;2022-09-09T03:23:52;15.20;99.90
52543;DHT22;38449;52.696;6.186;2022-09-09T03:26:17;15.20;99.90
52543;DHT22;38449;52.696;6.186;2022-09-09T03:28:43;15.20;99.90
52543;DHT22;38449;52.696;6.186;2022-09-09T03:31:10;15.20;99.90
52543;DHT22;38449;52.696;6.186;2022-09-09T03:33:39;15.10;99.90
52543;DHT22;38449;52.696;6.186;2022-09-09T03:36:07;15.10;99.90
52543;DHT22;38449;52.696;6.186;2022-09-09T03:38:33;15.10;99.90
52543;DHT22;38449;52.696;6.186;2022-09-09T03:41:00;15.10;99.90
52543;DHT22;38449;52.696;6.186;2022-09-09T03:43:27;15.00;99.90
52543;DHT22;38449;52.696;6.186;2022-09-09T03:45:53;15.00;99.90
52543;DHT22;38449;52.696;6.186;2022-09-09T03:48:22;15.00;99.90
52543;DHT22;38449;52.696;6.186;2022-09-09T03:50:50;14.90;99.90
52543;DHT22;38449;52.696;6.186;2022-09-09T03:53:18;14.90;99.90
52543;DHT22;38449;52.696;6.186;2022-09-09T03:55:49;14.90;99.90
52543;DHT22;38449;52.696;6.186;2022-09-09T03:58:18;14.80;99.90
52543;DHT22;38449;52.696;6.186;2022-09-09T04:01:16;14.80;99.90
52543;DHT22;38449;52.696;6.186;2022-09-09T04:03:43;14.80;99.90
52543;DHT22;38449;52.696;6.186;2022-09-09T04:06:11;14.70;99.90
52543;DHT22;38449;52.696;6.186;2022-09-09T04:08:38;14.70;99.90
52543;DHT22;38449;52.696;6.186;2022-09-09T04:11:05;14.70;99.90
52543;DHT22;38449;52.696;6.186;2022-09-09T04:13:33;14.60;99.90
52543;DHT22;38449;52.696;6.186;2022-09-09T04:16:00;14.70;99.90
52543;DHT22;38449;52.696;6.186;2022-09-09T04:18:26;14.60;99.90
52543;DHT22;38449;52.696;6.186;2022-09-09T04:20:53;14.60;99.90
52543;DHT22;38449;52.696;6.186;2022-09-09T04:23:19;14.60;99.90
52543;DHT22;38449;52.696;6.186;2022-09-09T04:25:47;14.60;99.90
52543;DHT22;38449;52.696;6.186;2022-09-09T04:28:17;14.70;99.90
52543;DHT22;38449;52.696;6.186;2022-09-09T04:30:44;14.60;99.90
52543;DHT22;38449;52.696;6.186;2022-09-09T04:33:10;14.60;99.90
52543;DHT22;38449;52.696;6.186;2022-09-09T04:35:37;14.60;99.90
52543;DHT22;38449;52.696;6.186;2022-09-09T04:38:04;14.50;99.90
52543;DHT22;38449;52.696;6.186;2022-09-09T04:40:30;14.50;99.90
52543;DHT22;38449;52.696;6.186;2022-09-09T04:43:00;14.50;99.90
52543;DHT22;38449;52.696;6.186;2022-09-09T04:45:26;14.50;99.90
52543;DHT22;38449;52.696;6.186;2022-09-09T04:47:53;14.40;99.90
52543;DHT22;38449;52.696;6.186;2022-09-09T04:50:19;14.50;99.90
52543;DHT22;38449;52.696;6.186;2022-09-09T04:52:45;14.50;99.90
52543;DHT22;38449;52.696;6.186;2022-09-09T04:55:11;14.40;99.90
52543;DHT22;38449;52.696;6.186;2022-09-09T04:57:38;14.50;99.90
52543;DHT22;38449;52.696;6.186;2022-09-09T05:00:05;14.40;99.90
52543;DHT22;38449;52.696;6.186;2022-09-09T05:02:31;14.50;99.90
52543;DHT22;38449;52.696;6.186;2022-09-09T05:04:58;14.40;99.90
52543;DHT22;38449;52.696;6.186;2022-09-09T05:07:24;14.40;99.90
52543;DHT22;38449;52.696;6.186;2022-09-09T05:09:50;14.40;99.90
52543;DHT22;38449;52.696;6.186;2022-09-09T05:12:16;14.40;99.90
52543;DHT22;38449;52.696;6.186;2022-09-09T05:14:43;14.40;99.90
52543;DHT22;38449;52.696;6.186;2022-09-09T05:17:09;14.50;99.90
52543;DHT22;38449;52.696;6.186;2022-09-09T05:19:35;14.40;99.90
52543;DHT22;38449;52.696;6.186;2022-09-09T05:22:00;14.40;99.90
52543;DHT22;38449;52.696;6.186;2022-09-09T05:24:26;14.40;99.90
52543;DHT22;38449;52.696;6.186;2022-09-09T05:26:52;14.40;99.90
52543;DHT22;38449;52.696;6.186;2022-09-09T05:29:18;14.40;99.90
52543;DHT22;38449;52.696;6.186;2022-09-09T05:31:46;14.40;99.90
52543;DHT22;38449;52.696;6.186;2022-09-09T05:34:12;14.40;99.90
52543;DHT22;38449;52.696;6.186;2022-09-09T05:36:38;14.40;99.90
52543;DHT22;38449;52.696;6.186;2022-09-09T05:39:04;14.40;99.90
52543;DHT22;38449;52.696;6.186;2022-09-09T05:41:29;14.40;99.90
52543;DHT22;38449;52.696;6.186;2022-09-09T05:43:56;14.40;99.90
52543;DHT22;38449;52.696;6.186;2022-09-09T05:46:23;14.30;99.90
52543;DHT22;38449;52.696;6.186;2022-09-09T05:48:51;14.40;99.90
52543;DHT22;38449;52.696;6.186;2022-09-09T05:51:21;14.40;99.90
52543;DHT22;38449;52.696;6.186;2022-09-09T05:53:48;14.40;99.90
52543;DHT22;38449;52.696;6.186;2022-09-09T05:56:22;14.40;99.90
52543;DHT22;38449;52.696;6.186;2022-09-09T05:58:49;14.50;99.90
52543;DHT22;38449;52.696;6.186;2022-09-09T06:01:27;14.50;99.90
52543;DHT22;38449;52.696;6.186;2022-09-09T06:03:54;14.50;99.90
52543;DHT22;38449;52.696;6.186;2022-09-09T06:06:22;14.50;99.90
52543;DHT22;38449;52.696;6.186;2022-09-09T06:08:50;14.50;99.90
52543;DHT22;38449;52.696;6.186;2022-09-09T06:11:19;14.50;99.90
52543;DHT22;38449;52.696;6.186;2022-09-09T06:13:45;14.60;99.90
52543;DHT22;38449;52.696;6.186;2022-09-09T06:16:15;14.60;99.90
52543;DHT22;38449;52.696;6.186;2022-09-09T06:18:42;14.70;99.90
52543;DHT22;38449;52.696;6.186;2022-09-09T06:21:19;14.70;99.90
52543;DHT22;38449;52.696;6.186;2022-09-09T06:23:46;14.90;99.90
52543;DHT22;38449;52.696;6.186;2022-09-09T06:26:20;15.10;99.90
52543;DHT22;38449;52.696;6.186;2022-09-09T06:28:47;15.20;99.90
52543;DHT22;38449;52.696;6.186;2022-09-09T06:31:14;15.30;99.90
52543;DHT22;38449;52.696;6.186;2022-09-09T06:33:43;15.50;99.90
52543;DHT22;38449;52.696;6.186;2022-09-09T06:36:14;15.80;99.90
52543;DHT22;38449;52.696;6.186;2022-09-09T06:38:43;16.00;99.90
52543;DHT22;38449;52.696;6.186;2022-09-09T06:41:10;16.30;99.90
52543;DHT22;38449;52.696;6.186;2022-09-09T06:43:36;16.40;99.90
52543;DHT22;38449;52.696;6.186;2022-09-09T06:46:05;16.40;99.90
52543;DHT22;38449;52.696;6.186;2022-09-09T06:48:31;16.20;99.90
52543;DHT22;38449;52.696;6.186;2022-09-09T06:51:18;16.10;99.90
52543;DHT22;38449;52.696;6.186;2022-09-09T06:53:45;16.10;99.90
52543;DHT22;38449;52.696;6.186;2022-09-09T06:58:41;16.10;99.90
52543;DHT22;38449;52.696;6.186;2022-09-09T07:01:18;16.40;99.90
52543;DHT22;38449;52.696;6.186;2022-09-09T07:03:50;16.50;99.90
52543;DHT22;38449;52.696;6.186;2022-09-09T07:06:21;16.70;99.90
52543;DHT22;38449;52.696;6.186;2022-09-09T07:08:52;16.80;99.90
52543;DHT22;38449;52.696;6.186;2022-09-09T07:11:19;16.80;99.90
52543;DHT22;38449;52.696;6.186;2022-09-09T07:13:45;16.80;99.90
52543;DHT22;38449;52.696;6.186;2022-09-09T07:16:18;16.90;99.90
52543;DHT22;38449;52.696;6.186;2022-09-09T07:18:44;16.80;99.90
52543;DHT22;38449;52.696;6.186;2022-09-09T07:21:11;16.80;99.90
52543;DHT22;38449;52.696;6.186;2022-09-09T07:23:38;16.70;99.90
52543;DHT22;38449;52.696;6.186;2022-09-09T07:26:14;16.70;99.90
52543;DHT22;38449;52.696;6.186;2022-09-09T07:28:41;16.90;99.90
52543;DHT22;38449;52.696;6.186;2022-09-09T07:31:13;17.00;99.90
52543;DHT22;38449;52.696;6.186;2022-09-09T07:33:40;17.20;99.90
52543;DHT22;38449;52.696;6.186;2022-09-09T07:36:09;17.30;99.90
52543;DHT22;38449;52.696;6.186;2022-09-09T07:38:47;17.30;99.90
52543;DHT22;38449;52.696;6.186;2022-09-09T07:41:17;17.20;99.90
52543;DHT22;38449;52.696;6.186;2022-09-09T07:43:44;17.20;99.90
52543;DHT22;38449;52.696;6.186;2022-09-09T07:46:12;17.10;99.90
52543;DHT22;38449;52.696;6.186;2022-09-09T07:48:45;17.00;99.90
52543;DHT22;38449;52.696;6.186;2022-09-09T07:51:15;17.10;99.90
52543;DHT22;38449;52.696;6.186;2022-09-09T07:53:44;17.20;99.90
52543;DHT22;38449;52.696;6.186;2022-09-09T07:56:12;17.30;99.90
52543;DHT22;38449;52.696;6.186;2022-09-09T07:58:39;17.50;99.90
52543;DHT22;38449;52.696;6.186;2022-09-09T08:01:09;17.60;99.90
52543;DHT22;38449;52.696;6.186;2022-09-09T08:03:35;17.80;99.90
52543;DHT22;38449;52.696;6.186;2022-09-09T08:06:07;18.00;99.90
52543;DHT22;38449;52.696;6.186;2022-09-09T08:08:34;18.10;99.90
52543;DHT22;38449;52.696;6.186;2022-09-09T08:11:08;18.20;99.90
52543;DHT22;38449;52.696;6.186;2022-09-09T08:13:35;18.40;99.90
52543;DHT22;38449;52.696;6.186;2022-09-09T08:16:25;18.50;99.90
52543;DHT22;38449;52.696;6.186;2022-09-09T08:18:51;18.70;99.90
52543;DHT22;38449;52.696;6.186;2022-09-09T08:21:22;18.80;99.90
52543;DHT22;38449;52.696;6.186;2022-09-09T08:23:51;18.90;99.90
52543;DHT22;38449;52.696;6.186;2022-09-09T08:26:35;19.00;99.90
52543;DHT22;38449;52.696;6.186;2022-09-09T08:29:02;19.00;99.90
52543;DHT22;38449;52.696;6.186;2022-09-09T08:31:31;19.00;99.90
52543;DHT22;38449;52.696;6.186;2022-09-09T08:33:58;19.20;99.90
52543;DHT22;38449;52.696;6.186;2022-09-09T08:36:30;19.20;99.90
52543;DHT22;38449;52.696;6.186;2022-09-09T08:38:57;19.30;99.90
52543;DHT22;38449;52.696;6.186;2022-09-09T08:44:22;19.20;99.90
52543;DHT22;38449;52.696;6.186;2022-09-09T08:51:49;18.80;99.90
52543;DHT22;38449;52.696;6.186;2022-09-09T08:54:16;18.80;99.90
52543;DHT22;38449;52.696;6.186;2022-09-09T08:56:42;18.80;99.90
52543;DHT22;38449;52.696;6.186;2022-09-09T08:59:13;18.80;99.90
52543;DHT22;38449;52.696;6.186;2022-09-09T09:01:58;18.80;99.90
52543;DHT22;38449;52.696;6.186;2022-09-09T09:05:04;18.90;99.90
52543;DHT22;38449;52.696;6.186;2022-09-09T09:07:52;18.80;99.90
52543;DHT22;38449;52.696;6.186;2022-09-09T09:13:15;18.90;99.90
52543;DHT22;38449;52.696;6.186;2022-09-09T09:15:42;19.00;99.90
52543;DHT22;38449;52.696;6.186;2022-09-09T09:18:12;19.00;99.90
52543;DHT22;38449;52.696;6.186;2022-09-09T09:21:02;19.00;99.90
52543;DHT22;38449;52.696;6.186;2022-09-09T09:23:37;19.00;99.90
52543;DHT22;38449;52.696;6.186;2022-09-09T09:26:07;18.90;99.90
52543;DHT22;38449;52.696;6.186;2022-09-09T09:28:35;19.00;99.90
52543;DHT22;38449;52.696;6.186;2022-09-09T09:31:10;18.90;99.90
52543;DHT22;38449;52.696;6.186;2022-09-09T09:33:48;19.00;99.90
52543;DHT22;38449;52.696;6.186;2022-09-09T09:36:16;19.00;99.90
52543;DHT22;38449;52.696;6.186;2022-09-09T09:38:54;19.00;99.90
52543;DHT22;38449;52.696;6.186;2022-09-09T09:41:40;19.10;99.90
52543;DHT22;38449;52.696;6.186;2022-09-09T09:46:50;19.30;99.90
52543;DHT22;38449;52.696;6.186;2022-09-09T09:49:16;19.40;99.90
52543;DHT22;38449;52.696;6.186;2022-09-09T09:51:43;19.40;99.90
52543;DHT22;38449;52.696;6.186;2022-09-09T09:56:42;19.20;99.90
52543;DHT22;38449;52.696;6.186;2022-09-09T10:01:52;19.10;99.90
52543;DHT22;38449;52.696;6.186;2022-09-09T10:04:21;19.10;99.90
52543;DHT22;38449;52.696;6.186;2022-09-09T10:06:49;19.20;99.90
52543;DHT22;38449;52.696;6.186;2022-09-09T10:09:29;19.10;99.90
52543;DHT22;38449;52.696;6.186;2022-09-09T10:12:26;19.10;99.90
52543;DHT22;38449;52.696;6.186;2022-09-09T10:18:21;19.00;99.90
52543;DHT22;38449;52.696;6.186;2022-09-09T10:24:11;18.80;99.90
52543;DHT22;38449;52.696;6.186;2022-09-09T10:29:40;18.80;99.90
52543;DHT22;38449;52.696;6.186;2022-09-09T10:34:55;18.80;99.90
52543;DHT22;38449;52.696;6.186;2022-09-09T10:40:46;18.90;99.90
52543;DHT22;38449;52.696;6.186;2022-09-09T10:46:57;19.00;99.90
52543;DHT22;38449;52.696;6.186;2022-09-09T11:00:39;19.00;99.90
52543;DHT22;38449;52.696;6.186;2022-09-09T11:03:09;19.10;99.90
52543;DHT22;38449;52.696;6.186;2022-09-09T11:05:43;19.20;99.90
52543;DHT22;38449;52.696;6.186;2022-09-09T11:08:20;19.20;99.90
52543;DHT22;38449;52.696;6.186;2022-09-09T11:17:04;19.50;99.90
52543;DHT22;38449;52.696;6.186;2022-09-09T11:19:42;19.70;99.90
52543;DHT22;38449;52.696;6.186;2022-09-09T11:22:27;19.90;99.90
52543;DHT22;38449;52.696;6.186;2022-09-09T11:27:50;20.00;99.90
52543;DHT22;38449;52.696;6.186;2022-09-09T11:36:31;20.70;99.90
52543;DHT22;38449;52.696;6.186;2022-09-09T11:41:37;20.90;99.90
52543;DHT22;38449;52.696;6.186;2022-09-09T11:44:11;20.80;99.90
52543;DHT22;38449;52.696;6.186;2022-09-09T11:46:38;20.80;99.90
52543;DHT22;38449;52.696;6.186;2022-09-09T11:49:28;20.80;99.90
52543;DHT22;38449;52.696;6.186;2022-09-09T11:51:54;20.70;99.90
52543;DHT22;38449;52.696;6.186;2022-09-09T11:54:33;20.80;99.90
52543;DHT22;38449;52.696;6.186;2022-09-09T11:57:04;20.70;99.90
52543;DHT22;38449;52.696;6.186;2022-09-09T11:59:50;20.60;99.90
52543;DHT22;38449;52.696;6.186;2022-09-09T12:02:25;20.50;99.90
52543;DHT22;38449;52.696;6.186;2022-09-09T12:04:57;20.50;99.90
52543;DHT22;38449;52.696;6.186;2022-09-09T12:07:50;20.30;99.90
52543;DHT22;38449;52.696;6.186;2022-09-09T12:10:32;20.20;99.90
52543;DHT22;38449;52.696;6.186;2022-09-09T12:15:51;20.30;99.90
52543;DHT22;38449;52.696;6.186;2022-09-09T12:18:38;20.50;99.90
52543;DHT22;38449;52.696;6.186;2022-09-09T12:21:27;20.70;99.90
52543;DHT22;38449;52.696;6.186;2022-09-09T12:26:29;20.80;99.90
52543;DHT22;38449;52.696;6.186;2022-09-09T12:31:44;20.70;99.90
52543;DHT22;38449;52.696;6.186;2022-09-09T12:34:16;20.60;99.90
52543;DHT22;38449;52.696;6.186;2022-09-09T12:36:44;20.70;99.90
52543;DHT22;38449;52.696;6.186;2022-09-09T12:39:31;20.70;99.90
52543;DHT22;38449;52.696;6.186;2022-09-09T12:41:58;20.70;99.90
52543;DHT22;38449;52.696;6.186;2022-09-09T12:44:25;20.60;99.90
52543;DHT22;38449;52.696;6.186;2022-09-09T12:46:54;20.50;99.90
52543;DHT22;38449;52.696;6.186;2022-09-09T12:51:54;20.10;99.90
52543;DHT22;38449;52.696;6.186;2022-09-09T12:54:22;19.90;99.90
52543;DHT22;38449;52.696;6.186;2022-09-09T12:56:49;19.80;99.90
52543;DHT22;38449;52.696;6.186;2022-09-09T12:59:36;19.70;99.90
52543;DHT22;38449;52.696;6.186;2022-09-09T13:02:10;19.70;99.90
52543;DHT22;38449;52.696;6.186;2022-09-09T13:04:37;19.80;99.90
52543;DHT22;38449;52.696;6.186;2022-09-09T13:07:06;19.80;99.90
52543;DHT22;38449;52.696;6.186;2022-09-09T13:09:35;19.80;99.90
52543;DHT22;38449;52.696;6.186;2022-09-09T13:12:01;19.60;99.90
52543;DHT22;38449;52.696;6.186;2022-09-09T13:14:35;19.50;99.90
52543;DHT22;38449;52.696;6.186;2022-09-09T13:17:04;19.40;99.90
52543;DHT22;38449;52.696;6.186;2022-09-09T13:19:36;19.50;99.90
52543;DHT22;38449;52.696;6.186;2022-09-09T13:22:14;19.60;99.90
52543;DHT22;38449;52.696;6.186;2022-09-09T13:24:44;19.80;99.90
52543;DHT22;38449;52.696;6.186;2022-09-09T13:29:54;19.90;99.90
52543;DHT22;38449;52.696;6.186;2022-09-09T13:32:21;19.80;99.90
52543;DHT22;38449;52.696;6.186;2022-09-09T13:34:58;19.80;99.90
52543;DHT22;38449;52.696;6.186;2022-09-09T13:37:34;19.70;99.90
52543;DHT22;38449;52.696;6.186;2022-09-09T13:40:01;19.70;99.90
52543;DHT22;38449;52.696;6.186;2022-09-09T13:42:30;19.70;99.90
52543;DHT22;38449;52.696;6.186;2022-09-09T13:44:58;19.70;99.90
52543;DHT22;38449;52.696;6.186;2022-09-09T13:47:34;19.80;99.90
52543;DHT22;38449;52.696;6.186;2022-09-09T13:50:32;19.70;99.90
52543;DHT22;38449;52.696;6.186;2022-09-09T13:52:59;19.80;99.90
52543;DHT22;38449;52.696;6.186;2022-09-09T13:55:28;19.80;99.90
52543;DHT22;38449;52.696;6.186;2022-09-09T13:58:03;19.90;99.90
52543;DHT22;38449;52.696;6.186;2022-09-09T14:00:32;20.00;99.90
52543;DHT22;38449;52.696;6.186;2022-09-09T14:02:59;20.10;99.90
52543;DHT22;38449;52.696;6.186;2022-09-09T14:05:29;20.20;99.90
52543;DHT22;38449;52.696;6.186;2022-09-09T14:07:55;20.20;99.90
52543;DHT22;38449;52.696;6.186;2022-09-09T14:10:21;20.00;99.90
52543;DHT22;38449;52.696;6.186;2022-09-09T14:12:47;20.00;99.90
52543;DHT22;38449;52.696;6.186;2022-09-09T14:15:13;19.90;99.90
52543;DHT22;38449;52.696;6.186;2022-09-09T14:17:39;19.90;99.90
52543;DHT22;38449;52.696;6.186;2022-09-09T14:20:07;20.00;99.90
52543;DHT22;38449;52.696;6.186;2022-09-09T14:22:35;20.00;99.90
52543;DHT22;38449;52.696;6.186;2022-09-09T14:25:02;20.00;99.90
52543;DHT22;38449;52.696;6.186;2022-09-09T14:27:28;19.90;99.90
52543;DHT22;38449;52.696;6.186;2022-09-09T14:29:55;19.90;99.90
52543;DHT22;38449;52.696;6.186;2022-09-09T14:32:21;19.90;99.90
52543;DHT22;38449;52.696;6.186;2022-09-09T14:34:47;19.80;99.90
52543;DHT22;38449;52.696;6.186;2022-09-09T14:37:15;19.90;99.90
52543;DHT22;38449;52.696;6.186;2022-09-09T14:39:41;20.00;99.90
52543;DHT22;38449;52.696;6.186;2022-09-09T14:42:10;20.00;99.90
52543;DHT22;38449;52.696;6.186;2022-09-09T14:44:37;19.90;99.90
52543;DHT22;38449;52.696;6.186;2022-09-09T14:47:07;19.90;99.90
52543;DHT22;38449;52.696;6.186;2022-09-09T14:49:34;20.00;99.90
52543;DHT22;38449;52.696;6.186;2022-09-09T14:52:00;20.00;99.90
52543;DHT22;38449;52.696;6.186;2022-09-09T14:54:26;20.00;99.90
52543;DHT22;38449;52.696;6.186;2022-09-09T14:56:51;20.10;99.90
52543;DHT22;38449;52.696;6.186;2022-09-09T14:59:18;20.10;99.90
52543;DHT22;38449;52.696;6.186;2022-09-09T15:01:44;20.00;99.90
52543;DHT22;38449;52.696;6.186;2022-09-09T15:04:12;20.00;99.90
52543;DHT22;38449;52.696;6.186;2022-09-09T15:06:38;20.00;99.90
52543;DHT22;38449;52.696;6.186;2022-09-09T15:09:04;19.90;99.90
52543;DHT22;38449;52.696;6.186;2022-09-09T15:11:34;19.90;99.90
52543;DHT22;38449;52.696;6.186;2022-09-09T15:14:04;19.90;99.90
52543;DHT22;38449;52.696;6.186;2022-09-09T15:16:30;19.90;99.90
52543;DHT22;38449;52.696;6.186;2022-09-09T15:18:58;19.80;99.90
52543;DHT22;38449;52.696;6.186;2022-09-09T15:21:27;19.90;99.90
52543;DHT22;38449;52.696;6.186;2022-09-09T15:23:53;19.80;99.90
52543;DHT22;38449;52.696;6.186;2022-09-09T15:26:19;19.80;99.90
52543;DHT22;38449;52.696;6.186;2022-09-09T15:28:46;19.90;99.90
52543;DHT22;38449;52.696;6.186;2022-09-09T15:31:21;19.90;99.90
52543;DHT22;38449;52.696;6.186;2022-09-09T15:33:52;19.90;99.90
52543;DHT22;38449;52.696;6.186;2022-09-09T15:36:23;20.00;99.90
52543;DHT22;38449;52.696;6.186;2022-09-09T15:38:51;20.10;99.90
52543;DHT22;38449;52.696;6.186;2022-09-09T15:41:18;20.20;99.90
52543;DHT22;38449;52.696;6.186;2022-09-09T15:43:54;20.20;99.90
52543;DHT22;38449;52.696;6.186;2022-09-09T15:46:32;20.20;99.90
52543;DHT22;38449;52.696;6.186;2022-09-09T15:49:08;20.20;99.90
52543;DHT22;38449;52.696;6.186;2022-09-09T15:51:38;20.20;99.90
52543;DHT22;38449;52.696;6.186;2022-09-09T15:54:04;20.20;99.90
52543;DHT22;38449;52.696;6.186;2022-09-09T15:56:30;20.20;99.90
52543;DHT22;38449;52.696;6.186;2022-09-09T15:58:57;20.10;99.90
52543;DHT22;38449;52.696;6.186;2022-09-09T16:01:25;20.20;99.90
52543;DHT22;38449;52.696;6.186;2022-09-09T16:03:51;20.30;99.90
52543;DHT22;38449;52.696;6.186;2022-09-09T16:06:19;20.20;99.90
52543;DHT22;38449;52.696;6.186;2022-09-09T16:08:51;20.30;99.90
52543;DHT22;38449;52.696;6.186;2022-09-09T16:11:47;20.30;99.90
52543;DHT22;38449;52.696;6.186;2022-09-09T16:14:13;20.30;99.90
52543;DHT22;38449;52.696;6.186;2022-09-09T16:16:41;20.30;99.90
52543;DHT22;38449;52.696;6.186;2022-09-09T16:19:09;20.30;99.90
52543;DHT22;38449;52.696;6.186;2022-09-09T16:21:40;20.30;99.90
52543;DHT22;38449;52.696;6.186;2022-09-09T16:24:09;20.30;99.90
52543;DHT22;38449;52.696;6.186;2022-09-09T16:26:36;20.20;99.90
52543;DHT22;38449;52.696;6.186;2022-09-09T16:29:03;20.00;99.90
52543;DHT22;38449;52.696;6.186;2022-09-09T16:31:30;20.00;99.90
52543;DHT22;38449;52.696;6.186;2022-09-09T16:33:57;19.90;99.90
52543;DHT22;38449;52.696;6.186;2022-09-09T16:36:28;19.80;99.90
52543;DHT22;38449;52.696;6.186;2022-09-09T16:38:57;19.80;99.90
52543;DHT22;38449;52.696;6.186;2022-09-09T16:41:23;19.70;99.90
52543;DHT22;38449;52.696;6.186;2022-09-09T16:43:59;19.70;99.90
52543;DHT22;38449;52.696;6.186;2022-09-09T16:46:27;19.60;99.90
52543;DHT22;38449;52.696;6.186;2022-09-09T16:48:55;19.60;99.90
52543;DHT22;38449;52.696;6.186;2022-09-09T16:51:23;19.60;99.90
52543;DHT22;38449;52.696;6.186;2022-09-09T16:53:50;19.50;99.90
52543;DHT22;38449;52.696;6.186;2022-09-09T16:56:18;19.40;99.90
52543;DHT22;38449;52.696;6.186;2022-09-09T16:58:53;19.30;99.90
52543;DHT22;38449;52.696;6.186;2022-09-09T17:01:20;19.10;99.90
52543;DHT22;38449;52.696;6.186;2022-09-09T17:03:46;19.00;99.90
52543;DHT22;38449;52.696;6.186;2022-09-09T17:06:13;19.00;99.90
52543;DHT22;38449;52.696;6.186;2022-09-09T17:08:40;18.90;99.90
52543;DHT22;38449;52.696;6.186;2022-09-09T17:11:18;18.90;99.90
52543;DHT22;38449;52.696;6.186;2022-09-09T17:13:45;18.90;99.90
52543;DHT22;38449;52.696;6.186;2022-09-09T17:16:12;18.90;99.90
52543;DHT22;38449;52.696;6.186;2022-09-09T17:18:39;18.90;99.90
52543;DHT22;38449;52.696;6.186;2022-09-09T17:21:07;18.80;99.90
52543;DHT22;38449;52.696;6.186;2022-09-09T17:23:36;18.80;99.90
52543;DHT22;38449;52.696;6.186;2022-09-09T17:26:08;18.70;99.90
52543;DHT22;38449;52.696;6.186;2022-09-09T17:28:36;18.70;99.90
52543;DHT22;38449;52.696;6.186;2022-09-09T17:31:02;18.50;99.90
52543;DHT22;38449;52.696;6.186;2022-09-09T17:33:30;18.60;99.90
52543;DHT22;38449;52.696;6.186;2022-09-09T17:36:06;18.60;99.90
52543;DHT22;38449;52.696;6.186;2022-09-09T17:38:33;18.50;99.90
52543;DHT22;38449;52.696;6.186;2022-09-09T17:41:09;18.50;99.90
52543;DHT22;38449;52.696;6.186;2022-09-09T17:43:35;18.30;99.90
52543;DHT22;38449;52.696;6.186;2022-09-09T17:46:26;18.30;99.90
52543;DHT22;38449;52.696;6.186;2022-09-09T17:48:56;18.30;99.90
52543;DHT22;38449;52.696;6.186;2022-09-09T17:51:23;18.20;99.90
52543;DHT22;38449;52.696;6.186;2022-09-09T17:53:51;18.20;99.90
52543;DHT22;38449;52.696;6.186;2022-09-09T17:56:19;18.10;99.90